Terminal Aerodrome Forecast
Issued by NWS

Home | Current Version | Previous Version | Text Only | Print | Product List | Glossary On
Versions: 1 2 3 4 5 6 7 8 9 10 11 12 13 14 15
000
FTUS45 KABQ 272320
TAFGUP
TAF
KGUP 272320Z 2800/2824 28010KT P6SM VCSH SCT080 SCT120
     FM280300 VRB04KT P6SM BKN100
     FM281700 24005KT P6SM VCSH BKN070 BKN120
     FM281900 28006KT P6SM VCTS OVC070CB
     FM282300 32007KT P6SM VCSH BKN050=

USA.gov is the U.S. government's official web portal to all federal, state and local government web resources and services.